sensor_id;sensor_type;location;lat;lon;timestamp;P1;durP1;ratioP1;P2;durP2;ratioP2
19804;SDS011;10062;51.052;13.756;2022-09-30T00:01:28;10.93;;;7.70;;
19804;SDS011;10062;51.052;13.756;2022-09-30T00:04:01;12.03;;;7.13;;
19804;SDS011;10062;51.052;13.756;2022-09-30T00:06:34;12.73;;;6.87;;
19804;SDS011;10062;51.052;13.756;2022-09-30T00:09:06;14.83;;;7.83;;
19804;SDS011;10062;51.052;13.756;2022-09-30T00:11:40;15.00;;;7.93;;
19804;SDS011;10062;51.052;13.756;2022-09-30T00:14:13;13.00;;;7.63;;
19804;SDS011;10062;51.052;13.756;2022-09-30T00:16:49;12.23;;;7.63;;
19804;SDS011;10062;51.052;13.756;2022-09-30T00:19:21;14.83;;;8.00;;
19804;SDS011;10062;51.052;13.756;2022-09-30T00:21:53;10.40;;;7.23;;
19804;SDS011;10062;51.052;13.756;2022-09-30T00:24:24;12.57;;;7.10;;
19804;SDS011;10062;51.052;13.756;2022-09-30T00:26:57;12.80;;;7.00;;
19804;SDS011;10062;51.052;13.756;2022-09-30T00:29:28;12.30;;;7.13;;
19804;SDS011;10062;51.052;13.756;2022-09-30T00:32:02;12.13;;;7.47;;
19804;SDS011;10062;51.052;13.756;2022-09-30T00:34:34;13.57;;;8.17;;
19804;SDS011;10062;51.052;13.756;2022-09-30T00:37:06;9.57;;;6.30;;
19804;SDS011;10062;51.052;13.756;2022-09-30T00:39:38;11.07;;;6.70;;
19804;SDS011;10062;51.052;13.756;2022-09-30T00:42:10;10.50;;;6.93;;
19804;SDS011;10062;51.052;13.756;2022-09-30T00:44:48;12.23;;;7.33;;
19804;SDS011;10062;51.052;13.756;2022-09-30T00:47:29;10.50;;;6.93;;
19804;SDS011;10062;51.052;13.756;2022-09-30T00:50:18;14.73;;;7.77;;
19804;SDS011;10062;51.052;13.756;2022-09-30T00:53:05;12.80;;;8.03;;
19804;SDS011;10062;51.052;13.756;2022-09-30T00:55:43;14.17;;;7.33;;
19804;SDS011;10062;51.052;13.756;2022-09-30T00:58:20;14.90;;;8.03;;
19804;SDS011;10062;51.052;13.756;2022-09-30T01:00:58;13.83;;;7.97;;
19804;SDS011;10062;51.052;13.756;2022-09-30T01:03:37;13.77;;;6.97;;
19804;SDS011;10062;51.052;13.756;2022-09-30T01:06:12;11.30;;;7.07;;
19804;SDS011;10062;51.052;13.756;2022-09-30T01:08:44;11.43;;;6.90;;
19804;SDS011;10062;51.052;13.756;2022-09-30T01:11:17;13.27;;;7.47;;
19804;SDS011;10062;51.052;13.756;2022-09-30T01:13:49;13.93;;;7.47;;
19804;SDS011;10062;51.052;13.756;2022-09-30T01:16:31;14.03;;;8.00;;
19804;SDS011;10062;51.052;13.756;2022-09-30T01:19:23;13.83;;;7.30;;
19804;SDS011;10062;51.052;13.756;2022-09-30T01:22:19;12.63;;;7.37;;
19804;SDS011;10062;51.052;13.756;2022-09-30T01:25:02;13.63;;;7.97;;
19804;SDS011;10062;51.052;13.756;2022-09-30T01:31:46;15.20;;;7.90;;
19804;SDS011;10062;51.052;13.756;2022-09-30T01:34:25;14.03;;;8.13;;
19804;SDS011;10062;51.052;13.756;2022-09-30T01:37:07;16.60;;;8.63;;
19804;SDS011;10062;51.052;13.756;2022-09-30T01:39:49;12.63;;;8.17;;
19804;SDS011;10062;51.052;13.756;2022-09-30T01:42:27;13.50;;;8.40;;
19804;SDS011;10062;51.052;13.756;2022-09-30T01:45:07;16.23;;;8.70;;
19804;SDS011;10062;51.052;13.756;2022-09-30T01:47:45;12.90;;;8.40;;
19804;SDS011;10062;51.052;13.756;2022-09-30T01:50:20;12.57;;;7.90;;
19804;SDS011;10062;51.052;13.756;2022-09-30T01:53:02;13.30;;;8.37;;
19804;SDS011;10062;51.052;13.756;2022-09-30T01:55:38;12.17;;;8.10;;
19804;SDS011;10062;51.052;13.756;2022-09-30T01:58:18;13.53;;;8.03;;
19804;SDS011;10062;51.052;13.756;2022-09-30T02:00:57;13.97;;;7.60;;
19804;SDS011;10062;51.052;13.756;2022-09-30T02:03:33;11.77;;;7.97;;
19804;SDS011;10062;51.052;13.756;2022-09-30T02:06:11;12.73;;;7.97;;
19804;SDS011;10062;51.052;13.756;2022-09-30T02:08:50;10.10;;;6.97;;
19804;SDS011;10062;51.052;13.756;2022-09-30T02:11:26;13.23;;;7.80;;
19804;SDS011;10062;51.052;13.756;2022-09-30T02:14:00;13.03;;;7.70;;
19804;SDS011;10062;51.052;13.756;2022-09-30T02:16:36;11.70;;;7.23;;
19804;SDS011;10062;51.052;13.756;2022-09-30T02:19:12;17.40;;;7.67;;
19804;SDS011;10062;51.052;13.756;2022-09-30T02:21:50;14.73;;;7.90;;
19804;SDS011;10062;51.052;13.756;2022-09-30T02:24:28;11.50;;;7.57;;
19804;SDS011;10062;51.052;13.756;2022-09-30T02:27:07;13.40;;;7.37;;
19804;SDS011;10062;51.052;13.756;2022-09-30T02:29:47;16.43;;;8.83;;
19804;SDS011;10062;51.052;13.756;2022-09-30T02:32:23;14.07;;;7.90;;
19804;SDS011;10062;51.052;13.756;2022-09-30T02:35:02;9.80;;;6.87;;
19804;SDS011;10062;51.052;13.756;2022-09-30T02:37:36;12.83;;;7.60;;
19804;SDS011;10062;51.052;13.756;2022-09-30T02:40:12;11.47;;;7.63;;
19804;SDS011;10062;51.052;13.756;2022-09-30T02:42:50;12.53;;;7.90;;
19804;SDS011;10062;51.052;13.756;2022-09-30T02:45:23;14.77;;;8.27;;
19804;SDS011;10062;51.052;13.756;2022-09-30T02:47:57;19.03;;;8.67;;
19804;SDS011;10062;51.052;13.756;2022-09-30T02:50:42;14.63;;;7.70;;
19804;SDS011;10062;51.052;13.756;2022-09-30T02:53:20;15.67;;;7.57;;
19804;SDS011;10062;51.052;13.756;2022-09-30T02:56:03;33.60;;;20.17;;
19804;SDS011;10062;51.052;13.756;2022-09-30T02:58:43;21.13;;;12.47;;
19804;SDS011;10062;51.052;13.756;2022-09-30T03:01:16;15.53;;;9.20;;
19804;SDS011;10062;51.052;13.756;2022-09-30T03:03:48;13.77;;;8.57;;
19804;SDS011;10062;51.052;13.756;2022-09-30T03:06:23;11.47;;;7.93;;
19804;SDS011;10062;51.052;13.756;2022-09-30T03:08:55;12.37;;;8.07;;
19804;SDS011;10062;51.052;13.756;2022-09-30T03:11:27;12.70;;;7.97;;
19804;SDS011;10062;51.052;13.756;2022-09-30T03:14:04;13.87;;;8.53;;
19804;SDS011;10062;51.052;13.756;2022-09-30T03:17:02;13.07;;;8.03;;
19804;SDS011;10062;51.052;13.756;2022-09-30T03:19:51;12.03;;;7.30;;
19804;SDS011;10062;51.052;13.756;2022-09-30T03:22:49;13.63;;;8.57;;
19804;SDS011;10062;51.052;13.756;2022-09-30T03:25:37;17.67;;;8.83;;
19804;SDS011;10062;51.052;13.756;2022-09-30T03:28:19;13.57;;;8.53;;
19804;SDS011;10062;51.052;13.756;2022-09-30T03:30:58;13.17;;;7.80;;
19804;SDS011;10062;51.052;13.756;2022-09-30T03:33:38;15.77;;;9.20;;
19804;SDS011;10062;51.052;13.756;2022-09-30T03:36:18;15.47;;;8.87;;
19804;SDS011;10062;51.052;13.756;2022-09-30T03:38:59;13.23;;;9.03;;
19804;SDS011;10062;51.052;13.756;2022-09-30T03:41:34;15.83;;;9.37;;
19804;SDS011;10062;51.052;13.756;2022-09-30T03:44:13;13.30;;;8.67;;
19804;SDS011;10062;51.052;13.756;2022-09-30T03:46:52;13.23;;;8.60;;
19804;SDS011;10062;51.052;13.756;2022-09-30T03:49:27;17.17;;;9.23;;
19804;SDS011;10062;51.052;13.756;2022-09-30T03:52:04;15.33;;;9.67;;
19804;SDS011;10062;51.052;13.756;2022-09-30T03:54:44;15.63;;;9.10;;
19804;SDS011;10062;51.052;13.756;2022-09-30T03:57:18;15.87;;;9.30;;
19804;SDS011;10062;51.052;13.756;2022-09-30T03:59:50;15.47;;;9.87;;
19804;SDS011;10062;51.052;13.756;2022-09-30T04:02:22;15.77;;;9.23;;
19804;SDS011;10062;51.052;13.756;2022-09-30T04:04:54;13.77;;;8.80;;
19804;SDS011;10062;51.052;13.756;2022-09-30T04:07:26;29.50;;;17.63;;
19804;SDS011;10062;51.052;13.756;2022-09-30T04:09:59;27.63;;;16.57;;
19804;SDS011;10062;51.052;13.756;2022-09-30T04:12:31;21.73;;;12.90;;
19804;SDS011;10062;51.052;13.756;2022-09-30T04:15:03;41.90;;;24.83;;
19804;SDS011;10062;51.052;13.756;2022-09-30T04:17:36;22.67;;;13.77;;
19804;SDS011;10062;51.052;13.756;2022-09-30T04:20:07;14.93;;;9.50;;
19804;SDS011;10062;51.052;13.756;2022-09-30T04:22:39;18.67;;;9.53;;
19804;SDS011;10062;51.052;13.756;2022-09-30T04:25:12;19.13;;;9.30;;
19804;SDS011;10062;51.052;13.756;2022-09-30T04:27:44;17.00;;;9.57;;
19804;SDS011;10062;51.052;13.756;2022-09-30T04:30:16;15.23;;;8.93;;
19804;SDS011;10062;51.052;13.756;2022-09-30T04:32:48;17.07;;;9.23;;
19804;SDS011;10062;51.052;13.756;2022-09-30T04:35:20;16.00;;;9.93;;
19804;SDS011;10062;51.052;13.756;2022-09-30T04:37:52;16.30;;;10.00;;
19804;SDS011;10062;51.052;13.756;2022-09-30T04:40:25;15.37;;;9.60;;
19804;SDS011;10062;51.052;13.756;2022-09-30T04:42:57;12.40;;;8.63;;
19804;SDS011;10062;51.052;13.756;2022-09-30T04:45:29;16.73;;;10.10;;
19804;SDS011;10062;51.052;13.756;2022-09-30T04:48:01;15.97;;;9.43;;
19804;SDS011;10062;51.052;13.756;2022-09-30T04:50:33;18.00;;;10.50;;
19804;SDS011;10062;51.052;13.756;2022-09-30T04:53:05;15.73;;;9.30;;
19804;SDS011;10062;51.052;13.756;2022-09-30T04:55:38;16.50;;;9.43;;
19804;SDS011;10062;51.052;13.756;2022-09-30T04:58:10;16.83;;;10.37;;
19804;SDS011;10062;51.052;13.756;2022-09-30T05:00:43;14.23;;;9.37;;
19804;SDS011;10062;51.052;13.756;2022-09-30T05:03:14;16.13;;;10.10;;
19804;SDS011;10062;51.052;13.756;2022-09-30T05:05:47;18.60;;;10.30;;
19804;SDS011;10062;51.052;13.756;2022-09-30T05:08:20;19.50;;;10.43;;
19804;SDS011;10062;51.052;13.756;2022-09-30T05:10:55;18.53;;;9.27;;
19804;SDS011;10062;51.052;13.756;2022-09-30T05:13:29;13.13;;;9.53;;
19804;SDS011;10062;51.052;13.756;2022-09-30T05:16:02;16.10;;;10.83;;
19804;SDS011;10062;51.052;13.756;2022-09-30T05:18:34;20.30;;;11.07;;
19804;SDS011;10062;51.052;13.756;2022-09-30T05:21:06;20.17;;;10.87;;
19804;SDS011;10062;51.052;13.756;2022-09-30T05:23:38;17.47;;;11.47;;
19804;SDS011;10062;51.052;13.756;2022-09-30T05:26:12;18.27;;;10.77;;
19804;SDS011;10062;51.052;13.756;2022-09-30T05:28:44;19.03;;;10.63;;
19804;SDS011;10062;51.052;13.756;2022-09-30T05:31:15;19.40;;;11.53;;
19804;SDS011;10062;51.052;13.756;2022-09-30T05:33:49;19.23;;;10.53;;
19804;SDS011;10062;51.052;13.756;2022-09-30T05:36:23;20.60;;;11.13;;
19804;SDS011;10062;51.052;13.756;2022-09-30T05:38:55;17.77;;;11.27;;
19804;SDS011;10062;51.052;13.756;2022-09-30T05:41:28;15.80;;;11.10;;
19804;SDS011;10062;51.052;13.756;2022-09-30T05:44:00;18.87;;;10.40;;
19804;SDS011;10062;51.052;13.756;2022-09-30T05:46:31;18.10;;;10.50;;
19804;SDS011;10062;51.052;13.756;2022-09-30T05:49:03;17.10;;;10.73;;
19804;SDS011;10062;51.052;13.756;2022-09-30T05:51:36;17.40;;;10.00;;
19804;SDS011;10062;51.052;13.756;2022-09-30T05:54:08;21.27;;;11.30;;
19804;SDS011;10062;51.052;13.756;2022-09-30T05:56:42;21.30;;;11.10;;
19804;SDS011;10062;51.052;13.756;2022-09-30T05:59:13;19.53;;;10.60;;
19804;SDS011;10062;51.052;13.756;2022-09-30T06:01:45;20.03;;;11.87;;
19804;SDS011;10062;51.052;13.756;2022-09-30T06:04:17;21.23;;;10.90;;
19804;SDS011;10062;51.052;13.756;2022-09-30T06:06:50;19.87;;;11.60;;
19804;SDS011;10062;51.052;13.756;2022-09-30T06:09:22;17.20;;;10.80;;
19804;SDS011;10062;51.052;13.756;2022-09-30T06:11:55;18.70;;;11.00;;
19804;SDS011;10062;51.052;13.756;2022-09-30T06:14:28;21.73;;;11.87;;
19804;SDS011;10062;51.052;13.756;2022-09-30T06:16:59;17.40;;;10.73;;
19804;SDS011;10062;51.052;13.756;2022-09-30T06:19:31;15.87;;;11.20;;
19804;SDS011;10062;51.052;13.756;2022-09-30T06:22:03;16.90;;;10.57;;
19804;SDS011;10062;51.052;13.756;2022-09-30T06:24:35;16.80;;;9.50;;
19804;SDS011;10062;51.052;13.756;2022-09-30T06:27:08;18.63;;;9.87;;
19804;SDS011;10062;51.052;13.756;2022-09-30T06:29:40;22.27;;;12.00;;
19804;SDS011;10062;51.052;13.756;2022-09-30T06:32:12;18.23;;;11.10;;
19804;SDS011;10062;51.052;13.756;2022-09-30T06:34:44;17.23;;;10.90;;
19804;SDS011;10062;51.052;13.756;2022-09-30T06:37:16;18.50;;;11.30;;
19804;SDS011;10062;51.052;13.756;2022-09-30T06:39:48;20.93;;;10.60;;
19804;SDS011;10062;51.052;13.756;2022-09-30T06:42:22;19.60;;;9.77;;
19804;SDS011;10062;51.052;13.756;2022-09-30T06:44:54;20.37;;;11.13;;
19804;SDS011;10062;51.052;13.756;2022-09-30T06:47:26;16.43;;;9.97;;
19804;SDS011;10062;51.052;13.756;2022-09-30T06:49:58;15.27;;;9.50;;
19804;SDS011;10062;51.052;13.756;2022-09-30T06:52:29;20.27;;;10.83;;
19804;SDS011;10062;51.052;13.756;2022-09-30T06:55:01;18.33;;;10.13;;
19804;SDS011;10062;51.052;13.756;2022-09-30T06:57:35;18.63;;;10.70;;
19804;SDS011;10062;51.052;13.756;2022-09-30T07:00:07;17.57;;;9.90;;
19804;SDS011;10062;51.052;13.756;2022-09-30T07:02:39;16.27;;;9.17;;
19804;SDS011;10062;51.052;13.756;2022-09-30T07:05:11;16.20;;;9.93;;
19804;SDS011;10062;51.052;13.756;2022-09-30T07:07:44;16.30;;;9.47;;
19804;SDS011;10062;51.052;13.756;2022-09-30T07:10:16;17.50;;;9.60;;
19804;SDS011;10062;51.052;13.756;2022-09-30T07:12:51;14.83;;;9.93;;
19804;SDS011;10062;51.052;13.756;2022-09-30T07:15:23;15.83;;;9.57;;
19804;SDS011;10062;51.052;13.756;2022-09-30T07:17:55;14.83;;;9.77;;
19804;SDS011;10062;51.052;13.756;2022-09-30T07:20:27;18.67;;;9.17;;
19804;SDS011;10062;51.052;13.756;2022-09-30T07:22:59;12.53;;;8.90;;
19804;SDS011;10062;51.052;13.756;2022-09-30T07:25:31;19.47;;;8.90;;
19804;SDS011;10062;51.052;13.756;2022-09-30T07:28:04;14.30;;;9.10;;
19804;SDS011;10062;51.052;13.756;2022-09-30T07:30:36;15.10;;;8.17;;
19804;SDS011;10062;51.052;13.756;2022-09-30T07:33:12;14.50;;;8.80;;
19804;SDS011;10062;51.052;13.756;2022-09-30T07:35:49;14.73;;;8.20;;
19804;SDS011;10062;51.052;13.756;2022-09-30T07:38:22;18.13;;;7.60;;
19804;SDS011;10062;51.052;13.756;2022-09-30T07:40:56;12.87;;;8.00;;
19804;SDS011;10062;51.052;13.756;2022-09-30T07:43:31;14.80;;;8.10;;
19804;SDS011;10062;51.052;13.756;2022-09-30T07:46:08;13.07;;;6.93;;
19804;SDS011;10062;51.052;13.756;2022-09-30T07:48:42;13.47;;;8.37;;
19804;SDS011;10062;51.052;13.756;2022-09-30T07:51:17;13.93;;;7.87;;
19804;SDS011;10062;51.052;13.756;2022-09-30T07:53:52;10.67;;;7.47;;
19804;SDS011;10062;51.052;13.756;2022-09-30T07:56:25;13.53;;;8.47;;
19804;SDS011;10062;51.052;13.756;2022-09-30T07:59:00;12.47;;;7.37;;
19804;SDS011;10062;51.052;13.756;2022-09-30T08:01:32;11.43;;;7.90;;
19804;SDS011;10062;51.052;13.756;2022-09-30T08:04:05;11.70;;;7.67;;
19804;SDS011;10062;51.052;13.756;2022-09-30T08:06:39;12.50;;;7.37;;
19804;SDS011;10062;51.052;13.756;2022-09-30T08:09:12;12.30;;;7.13;;
19804;SDS011;10062;51.052;13.756;2022-09-30T08:11:45;9.33;;;6.53;;
19804;SDS011;10062;51.052;13.756;2022-09-30T08:14:19;11.90;;;6.97;;
19804;SDS011;10062;51.052;13.756;2022-09-30T08:16:52;11.83;;;6.57;;
19804;SDS011;10062;51.052;13.756;2022-09-30T08:19:25;12.00;;;7.17;;
19804;SDS011;10062;51.052;13.756;2022-09-30T08:21:58;9.80;;;6.57;;
19804;SDS011;10062;51.052;13.756;2022-09-30T08:24:30;8.87;;;6.57;;
19804;SDS011;10062;51.052;13.756;2022-09-30T08:27:02;10.43;;;6.50;;
19804;SDS011;10062;51.052;13.756;2022-09-30T08:29:35;12.37;;;7.23;;
19804;SDS011;10062;51.052;13.756;2022-09-30T08:32:07;11.87;;;6.60;;
19804;SDS011;10062;51.052;13.756;2022-09-30T08:34:39;9.93;;;6.13;;
19804;SDS011;10062;51.052;13.756;2022-09-30T08:37:11;10.07;;;6.87;;
19804;SDS011;10062;51.052;13.756;2022-09-30T08:39:43;9.63;;;6.03;;
19804;SDS011;10062;51.052;13.756;2022-09-30T08:42:21;12.20;;;5.57;;
19804;SDS011;10062;51.052;13.756;2022-09-30T08:45:05;8.07;;;5.83;;
19804;SDS011;10062;51.052;13.756;2022-09-30T08:47:45;10.53;;;6.00;;
19804;SDS011;10062;51.052;13.756;2022-09-30T08:50:26;8.77;;;5.70;;
19804;SDS011;10062;51.052;13.756;2022-09-30T08:53:02;17.67;;;5.70;;
19804;SDS011;10062;51.052;13.756;2022-09-30T08:55:39;7.43;;;5.50;;
19804;SDS011;10062;51.052;13.756;2022-09-30T08:58:15;9.30;;;5.37;;
19804;SDS011;10062;51.052;13.756;2022-09-30T09:00:55;8.77;;;5.13;;
19804;SDS011;10062;51.052;13.756;2022-09-30T09:03:31;13.90;;;5.40;;
19804;SDS011;10062;51.052;13.756;2022-09-30T09:06:08;9.90;;;5.73;;
19804;SDS011;10062;51.052;13.756;2022-09-30T09:08:52;8.13;;;5.53;;
19804;SDS011;10062;51.052;13.756;2022-09-30T09:11:39;9.33;;;4.77;;
19804;SDS011;10062;51.052;13.756;2022-09-30T09:14:22;8.77;;;5.57;;
19804;SDS011;10062;51.052;13.756;2022-09-30T09:17:04;9.63;;;5.32;;
19804;SDS011;10062;51.052;13.756;2022-09-30T09:19:52;11.98;;;4.55;;
19804;SDS011;10062;51.052;13.756;2022-09-30T09:22:32;10.63;;;5.28;;
19804;SDS011;10062;51.052;13.756;2022-09-30T09:25:08;7.82;;;5.10;;
19804;SDS011;10062;51.052;13.756;2022-09-30T09:27:45;7.50;;;5.15;;
19804;SDS011;10062;51.052;13.756;2022-09-30T09:30:21;8.85;;;4.72;;
19804;SDS011;10062;51.052;13.756;2022-09-30T09:32:56;7.03;;;4.97;;
19804;SDS011;10062;51.052;13.756;2022-09-30T09:35:35;6.97;;;4.80;;
19804;SDS011;10062;51.052;13.756;2022-09-30T09:38:14;8.35;;;5.10;;
19804;SDS011;10062;51.052;13.756;2022-09-30T09:40:59;9.75;;;4.80;;
19804;SDS011;10062;51.052;13.756;2022-09-30T09:43:54;5.95;;;4.38;;
19804;SDS011;10062;51.052;13.756;2022-09-30T09:46:32;7.18;;;4.15;;
19804;SDS011;10062;51.052;13.756;2022-09-30T09:49:27;7.32;;;4.60;;
19804;SDS011;10062;51.052;13.756;2022-09-30T09:52:04;7.32;;;4.00;;
19804;SDS011;10062;51.052;13.756;2022-09-30T09:55:03;9.05;;;4.20;;
19804;SDS011;10062;51.052;13.756;2022-09-30T09:57:36;6.70;;;3.60;;
19804;SDS011;10062;51.052;13.756;2022-09-30T10:00:09;6.97;;;3.25;;
19804;SDS011;10062;51.052;13.756;2022-09-30T10:03:01;6.97;;;3.60;;
19804;SDS011;10062;51.052;13.756;2022-09-30T10:05:37;5.57;;;3.60;;
19804;SDS011;10062;51.052;13.756;2022-09-30T10:08:11;5.80;;;3.33;;
19804;SDS011;10062;51.052;13.756;2022-09-30T10:10:46;5.40;;;3.67;;
19804;SDS011;10062;51.052;13.756;2022-09-30T10:13:20;9.57;;;3.70;;
19804;SDS011;10062;51.052;13.756;2022-09-30T10:15:54;4.97;;;3.03;;
19804;SDS011;10062;51.052;13.756;2022-09-30T10:18:28;4.03;;;2.92;;
19804;SDS011;10062;51.052;13.756;2022-09-30T10:21:04;6.43;;;2.97;;
19804;SDS011;10062;51.052;13.756;2022-09-30T10:23:49;5.68;;;3.15;;
19804;SDS011;10062;51.052;13.756;2022-09-30T10:26:21;4.85;;;2.28;;
19804;SDS011;10062;51.052;13.756;2022-09-30T10:28:56;4.22;;;2.40;;
19804;SDS011;10062;51.052;13.756;2022-09-30T10:31:30;4.40;;;2.83;;
19804;SDS011;10062;51.052;13.756;2022-09-30T10:34:08;6.93;;;3.10;;
19804;SDS011;10062;51.052;13.756;2022-09-30T10:36:48;6.28;;;3.17;;
19804;SDS011;10062;51.052;13.756;2022-09-30T10:39:22;7.78;;;3.28;;
19804;SDS011;10062;51.052;13.756;2022-09-30T10:42:00;4.40;;;2.88;;
19804;SDS011;10062;51.052;13.756;2022-09-30T10:44:34;5.05;;;3.05;;
19804;SDS011;10062;51.052;13.756;2022-09-30T10:47:12;4.00;;;3.03;;
19804;SDS011;10062;51.052;13.756;2022-09-30T10:49:47;5.28;;;3.15;;
19804;SDS011;10062;51.052;13.756;2022-09-30T10:52:23;4.00;;;2.97;;
19804;SDS011;10062;51.052;13.756;2022-09-30T10:54:58;5.63;;;3.28;;
19804;SDS011;10062;51.052;13.756;2022-09-30T10:57:32;5.93;;;3.15;;
19804;SDS011;10062;51.052;13.756;2022-09-30T11:00:06;4.85;;;2.50;;
19804;SDS011;10062;51.052;13.756;2022-09-30T11:02:45;5.30;;;2.50;;
19804;SDS011;10062;51.052;13.756;2022-09-30T11:05:26;4.50;;;2.75;;
19804;SDS011;10062;51.052;13.756;2022-09-30T11:08:02;7.43;;;3.22;;
19804;SDS011;10062;51.052;13.756;2022-09-30T11:10:45;12.70;;;11.07;;
19804;SDS011;10062;51.052;13.756;2022-09-30T11:13:24;8.52;;;6.03;;
19804;SDS011;10062;51.052;13.756;2022-09-30T11:16:02;3.22;;;2.10;;
19804;SDS011;10062;51.052;13.756;2022-09-30T11:18:37;10.13;;;8.07;;
19804;SDS011;10062;51.052;13.756;2022-09-30T11:21:17;23.65;;;18.00;;
19804;SDS011;10062;51.052;13.756;2022-09-30T11:23:55;4.93;;;2.05;;
19804;SDS011;10062;51.052;13.756;2022-09-30T11:26:32;7.53;;;4.63;;
19804;SDS011;10062;51.052;13.756;2022-09-30T11:29:26;10.32;;;6.97;;
19804;SDS011;10062;51.052;13.756;2022-09-30T11:32:13;6.90;;;4.88;;
19804;SDS011;10062;51.052;13.756;2022-09-30T11:34:55;4.50;;;2.35;;
19804;SDS011;10062;51.052;13.756;2022-09-30T11:37:37;5.13;;;1.88;;
19804;SDS011;10062;51.052;13.756;2022-09-30T11:40:27;5.97;;;2.20;;
19804;SDS011;10062;51.052;13.756;2022-09-30T11:43:04;4.78;;;2.03;;
19804;SDS011;10062;51.052;13.756;2022-09-30T11:45:48;7.30;;;2.15;;
19804;SDS011;10062;51.052;13.756;2022-09-30T11:48:45;5.47;;;2.00;;
19804;SDS011;10062;51.052;13.756;2022-09-30T11:51:30;4.20;;;2.60;;
19804;SDS011;10062;51.052;13.756;2022-09-30T11:54:12;6.63;;;2.30;;
19804;SDS011;10062;51.052;13.756;2022-09-30T11:56:57;8.63;;;6.53;;
19804;SDS011;10062;51.052;13.756;2022-09-30T11:59:37;7.55;;;5.38;;
19804;SDS011;10062;51.052;13.756;2022-09-30T12:02:17;6.20;;;3.28;;
19804;SDS011;10062;51.052;13.756;2022-09-30T12:05:01;4.45;;;2.08;;
19804;SDS011;10062;51.052;13.756;2022-09-30T12:07:38;2.97;;;1.63;;
19804;SDS011;10062;51.052;13.756;2022-09-30T12:10:15;3.80;;;1.58;;
19804;SDS011;10062;51.052;13.756;2022-09-30T12:12:53;4.45;;;2.00;;
19804;SDS011;10062;51.052;13.756;2022-09-30T12:15:29;5.38;;;1.98;;
19804;SDS011;10062;51.052;13.756;2022-09-30T12:18:02;4.87;;;2.67;;
19804;SDS011;10062;51.052;13.756;2022-09-30T12:20:36;6.03;;;3.20;;
19804;SDS011;10062;51.052;13.756;2022-09-30T12:23:15;3.55;;;1.70;;
19804;SDS011;10062;51.052;13.756;2022-09-30T12:25:51;5.27;;;2.47;;
19804;SDS011;10062;51.052;13.756;2022-09-30T12:28:28;6.20;;;1.83;;
19804;SDS011;10062;51.052;13.756;2022-09-30T12:31:26;3.53;;;1.60;;
19804;SDS011;10062;51.052;13.756;2022-09-30T12:34:17;3.43;;;1.50;;
19804;SDS011;10062;51.052;13.756;2022-09-30T12:37:03;4.10;;;1.57;;
19804;SDS011;10062;51.052;13.756;2022-09-30T12:39:54;10.17;;;6.40;;
19804;SDS011;10062;51.052;13.756;2022-09-30T12:42:51;39.00;;;27.20;;
19804;SDS011;10062;51.052;13.756;2022-09-30T12:48:32;3.77;;;2.17;;
19804;SDS011;10062;51.052;13.756;2022-09-30T12:51:08;4.40;;;1.70;;
19804;SDS011;10062;51.052;13.756;2022-09-30T12:53:51;4.40;;;2.10;;
19804;SDS011;10062;51.052;13.756;2022-09-30T12:56:29;3.10;;;1.77;;
19804;SDS011;10062;51.052;13.756;2022-09-30T12:59:03;5.37;;;2.03;;
19804;SDS011;10062;51.052;13.756;2022-09-30T13:01:36;4.33;;;1.50;;
19804;SDS011;10062;51.052;13.756;2022-09-30T13:04:15;3.23;;;1.27;;
19804;SDS011;10062;51.052;13.756;2022-09-30T13:07:05;4.83;;;1.60;;
19804;SDS011;10062;51.052;13.756;2022-09-30T13:13:14;6.10;;;2.03;;
19804;SDS011;10062;51.052;13.756;2022-09-30T13:15:53;3.70;;;2.10;;
19804;SDS011;10062;51.052;13.756;2022-09-30T13:21:31;5.20;;;1.77;;
19804;SDS011;10062;51.052;13.756;2022-09-30T13:24:06;2.90;;;1.60;;
19804;SDS011;10062;51.052;13.756;2022-09-30T13:26:54;2.47;;;1.20;;
19804;SDS011;10062;51.052;13.756;2022-09-30T13:29:44;4.20;;;1.97;;
19804;SDS011;10062;51.052;13.756;2022-09-30T13:32:30;4.13;;;1.60;;
19804;SDS011;10062;51.052;13.756;2022-09-30T13:38:15;4.17;;;1.87;;
19804;SDS011;10062;51.052;13.756;2022-09-30T13:40:49;4.10;;;1.93;;
19804;SDS011;10062;51.052;13.756;2022-09-30T13:43:25;5.03;;;2.53;;
19804;SDS011;10062;51.052;13.756;2022-09-30T13:46:05;4.60;;;2.13;;
19804;SDS011;10062;51.052;13.756;2022-09-30T13:48:44;25.63;;;15.77;;
19804;SDS011;10062;51.052;13.756;2022-09-30T13:51:23;5.70;;;3.03;;
19804;SDS011;10062;51.052;13.756;2022-09-30T13:53:59;4.60;;;2.80;;
19804;SDS011;10062;51.052;13.756;2022-09-30T13:56:36;3.43;;;1.97;;
19804;SDS011;10062;51.052;13.756;2022-09-30T13:59:13;4.50;;;1.70;;
19804;SDS011;10062;51.052;13.756;2022-09-30T14:05:09;6.20;;;4.07;;
19804;SDS011;10062;51.052;13.756;2022-09-30T14:08:02;2.53;;;1.73;;
19804;SDS011;10062;51.052;13.756;2022-09-30T14:10:54;5.80;;;2.77;;
19804;SDS011;10062;51.052;13.756;2022-09-30T14:13:41;4.40;;;2.23;;
19804;SDS011;10062;51.052;13.756;2022-09-30T14:16:27;4.00;;;2.10;;
19804;SDS011;10062;51.052;13.756;2022-09-30T14:19:36;4.13;;;1.90;;
19804;SDS011;10062;51.052;13.756;2022-09-30T14:22:18;5.07;;;1.87;;
19804;SDS011;10062;51.052;13.756;2022-09-30T14:24:56;3.47;;;1.67;;
19804;SDS011;10062;51.052;13.756;2022-09-30T14:27:34;4.07;;;1.73;;
19804;SDS011;10062;51.052;13.756;2022-09-30T14:30:12;5.60;;;1.93;;
19804;SDS011;10062;51.052;13.756;2022-09-30T14:32:48;10.53;;;5.87;;
19804;SDS011;10062;51.052;13.756;2022-09-30T14:35:24;49.07;;;31.80;;
19804;SDS011;10062;51.052;13.756;2022-09-30T14:38:00;4.83;;;2.97;;
19804;SDS011;10062;51.052;13.756;2022-09-30T14:40:36;5.47;;;1.77;;
19804;SDS011;10062;51.052;13.756;2022-09-30T14:43:11;3.80;;;1.93;;
19804;SDS011;10062;51.052;13.756;2022-09-30T14:45:49;3.37;;;1.73;;
19804;SDS011;10062;51.052;13.756;2022-09-30T14:48:25;3.03;;;1.77;;
19804;SDS011;10062;51.052;13.756;2022-09-30T14:50:59;3.37;;;1.80;;
19804;SDS011;10062;51.052;13.756;2022-09-30T14:53:35;6.70;;;1.90;;
19804;SDS011;10062;51.052;13.756;2022-09-30T14:56:17;3.07;;;1.80;;
19804;SDS011;10062;51.052;13.756;2022-09-30T14:58:51;4.87;;;1.80;;
19804;SDS011;10062;51.052;13.756;2022-09-30T15:01:27;4.90;;;1.90;;
19804;SDS011;10062;51.052;13.756;2022-09-30T15:04:03;5.97;;;1.90;;
19804;SDS011;10062;51.052;13.756;2022-09-30T15:06:39;15.30;;;11.30;;
19804;SDS011;10062;51.052;13.756;2022-09-30T15:09:19;4.90;;;3.00;;
19804;SDS011;10062;51.052;13.756;2022-09-30T15:11:55;6.93;;;2.63;;
19804;SDS011;10062;51.052;13.756;2022-09-30T15:14:28;17.33;;;9.67;;
19804;SDS011;10062;51.052;13.756;2022-09-30T15:17:01;9.10;;;5.40;;
19804;SDS011;10062;51.052;13.756;2022-09-30T15:19:34;6.27;;;2.27;;
19804;SDS011;10062;51.052;13.756;2022-09-30T15:22:13;5.17;;;2.20;;
19804;SDS011;10062;51.052;13.756;2022-09-30T15:24:46;3.83;;;2.10;;
19804;SDS011;10062;51.052;13.756;2022-09-30T15:27:21;4.83;;;1.80;;
19804;SDS011;10062;51.052;13.756;2022-09-30T15:29:56;5.13;;;1.93;;
19804;SDS011;10062;51.052;13.756;2022-09-30T15:32:30;3.67;;;1.80;;
19804;SDS011;10062;51.052;13.756;2022-09-30T15:35:05;4.73;;;1.70;;
19804;SDS011;10062;51.052;13.756;2022-09-30T15:37:42;3.27;;;1.90;;
19804;SDS011;10062;51.052;13.756;2022-09-30T15:40:15;6.87;;;1.80;;
19804;SDS011;10062;51.052;13.756;2022-09-30T15:43:08;6.30;;;2.00;;